createdAt,value
2022-09-18T04:00:37.178Z,12.09
2022-09-18T04:01:37.048Z,12.05
2022-09-18T04:02:37.105Z,11.96
2022-09-18T04:03:36.995Z,12.07
2022-09-18T04:04:36.986Z,12.04
2022-09-18T04:05:36.975Z,12.04
2022-09-18T04:06:36.966Z,12.07
2022-09-18T04:07:36.951Z,12.09
2022-09-18T04:08:36.946Z,12.04
2022-09-18T04:09:36.932Z,12.10
2022-09-18T04:10:36.935Z,12.14
2022-09-18T04:11:41.936Z,12.14
2022-09-18T04:12:36.891Z,12.16
2022-09-18T04:13:36.924Z,11.96
2022-09-18T04:14:36.870Z,12.05
2022-09-18T04:15:36.862Z,12.13
2022-09-18T04:16:37.014Z,12.13
2022-09-18T04:17:36.848Z,12.02
2022-09-18T04:18:36.833Z,12.02
2022-09-18T04:19:36.858Z,11.95
2022-09-18T04:20:36.807Z,12.02
2022-09-18T04:21:36.794Z,11.96
2022-09-18T04:22:41.810Z,12.02
2022-09-18T04:23:36.766Z,11.99
2022-09-18T04:24:36.754Z,12.05
2022-09-18T04:25:36.748Z,12.05
2022-09-18T04:26:36.741Z,12.05
2022-09-18T04:27:36.729Z,11.95
2022-09-18T04:28:36.746Z,11.98
2022-09-18T04:29:36.698Z,12.02
2022-09-18T04:30:36.684Z,12.04
2022-09-18T04:31:36.718Z,12.01
2022-09-18T04:32:36.779Z,11.98
2022-09-18T04:33:41.695Z,12.01
2022-09-18T04:34:36.641Z,12.05
2022-09-18T04:35:36.630Z,12.01
2022-09-18T04:36:36.617Z,12.02
2022-09-18T04:37:36.611Z,12.07
2022-09-18T04:38:36.617Z,12.02
2022-09-18T04:39:36.621Z,12.04
2022-09-18T04:40:36.630Z,12.05
2022-09-18T04:41:36.561Z,12.04
2022-09-18T04:42:36.549Z,12.01
2022-09-18T04:43:36.551Z,12.02
2022-09-18T04:44:41.549Z,11.98
2022-09-18T04:45:36.516Z,11.99
2022-09-18T04:46:36.589Z,12.05
2022-09-18T04:47:36.502Z,11.98
2022-09-18T04:48:36.596Z,11.95
2022-09-18T04:49:36.480Z,12.01
2022-09-18T04:50:36.463Z,12.04
2022-09-18T04:51:36.447Z,12.05
2022-09-18T04:52:36.453Z,12.09
2022-09-18T04:53:36.425Z,12.01
2022-09-18T04:54:36.413Z,12.02
2022-09-18T04:55:41.425Z,11.98
2022-09-18T04:56:36.393Z,12.02
2022-09-18T04:57:36.388Z,12.09
2022-09-18T04:58:36.366Z,11.96
2022-09-18T04:59:36.361Z,12.01
2022-09-18T05:00:36.392Z,12.04
2022-09-18T05:01:36.430Z,11.99
2022-09-18T05:02:36.350Z,12.04
2022-09-18T05:03:36.838Z,12.02
2022-09-18T05:04:36.318Z,12.02
2022-09-18T05:05:36.290Z,11.99
2022-09-18T05:06:41.330Z,12.02
2022-09-18T05:07:36.284Z,12.04
2022-09-18T05:08:36.253Z,12.04
2022-09-18T05:09:36.242Z,12.01
2022-09-18T05:10:36.233Z,12.01
2022-09-18T05:11:36.222Z,11.98
2022-09-18T05:12:36.220Z,11.96
2022-09-18T05:13:36.201Z,12.12
2022-09-18T05:14:36.185Z,11.99
2022-09-18T05:15:36.197Z,12.13
2022-09-18T05:16:36.249Z,12.10
2022-09-18T05:17:41.186Z,12.13
2022-09-18T05:18:36.167Z,12.14
2022-09-18T05:19:36.143Z,12.10
2022-09-18T05:20:36.231Z,12.17
2022-09-18T05:21:36.109Z,12.13
2022-09-18T05:22:36.108Z,12.16
2022-09-18T05:23:36.085Z,12.14
2022-09-18T05:24:36.074Z,12.12
2022-09-18T05:25:36.068Z,12.10
2022-09-18T05:26:36.048Z,12.12
2022-09-18T05:27:36.145Z,12.16
2022-09-18T05:28:41.053Z,12.14
2022-09-18T05:29:36.017Z,12.10
2022-09-18T05:30:36.008Z,12.23
2022-09-18T05:31:36.033Z,12.27
2022-09-18T05:32:35.999Z,12.21
2022-09-18T05:33:35.972Z,12.20
2022-09-18T05:34:35.969Z,12.24
2022-09-18T05:35:35.954Z,12.21
2022-09-18T05:36:36.052Z,12.24
2022-09-18T05:37:35.951Z,12.24
2022-09-18T05:38:35.929Z,12.23
2022-09-18T05:39:40.929Z,12.28
2022-09-18T05:40:35.947Z,12.29
2022-09-18T05:41:35.885Z,12.28
2022-09-18T05:42:35.867Z,12.24
2022-09-18T05:43:35.869Z,12.28
2022-09-18T05:44:35.846Z,12.32
2022-09-18T05:45:35.848Z,12.24
2022-09-18T05:46:35.884Z,12.28
2022-09-18T05:47:35.822Z,12.38
2022-09-18T05:48:35.863Z,12.38
2022-09-18T05:49:35.822Z,12.39
2022-09-18T05:50:40.801Z,12.35
2022-09-18T05:51:35.769Z,12.37
2022-09-18T05:52:35.870Z,12.35
2022-09-18T05:53:35.758Z,12.37
2022-09-18T05:54:35.736Z,12.37
2022-09-18T05:55:35.721Z,12.50
2022-09-18T05:56:35.711Z,12.34
2022-09-18T05:57:35.721Z,12.42
2022-09-18T05:58:35.700Z,12.37
2022-09-18T05:59:35.681Z,12.31
2022-09-18T06:00:35.667Z,12.35
2022-09-18T06:01:44.883Z,12.34
2022-09-18T06:02:36.706Z,12.37
2022-09-18T06:03:35.646Z,12.35
2022-09-18T06:04:35.630Z,12.45
2022-09-18T06:05:35.609Z,12.50
2022-09-18T06:06:35.603Z,12.46
2022-09-18T06:07:35.586Z,12.49
2022-09-18T06:08:35.705Z,12.45
2022-09-18T06:09:35.561Z,12.49
2022-09-18T06:10:35.567Z,12.45
2022-09-18T06:11:35.546Z,12.42
2022-09-18T06:12:40.552Z,12.56
2022-09-18T06:13:35.529Z,12.71
2022-09-18T06:14:35.516Z,12.82
2022-09-18T06:15:35.493Z,12.83
2022-09-18T06:16:39.941Z,12.93
2022-09-18T06:17:36.475Z,13.12
2022-09-18T06:18:35.472Z,13.11
2022-09-18T06:19:35.449Z,13.30
2022-09-18T06:20:35.446Z,13.41
2022-09-18T06:21:35.434Z,13.36
2022-09-18T06:22:35.426Z,13.51
2022-09-18T06:23:40.553Z,13.49
2022-09-18T06:24:35.400Z,13.36
2022-09-18T06:25:35.390Z,13.23
2022-09-18T06:26:35.371Z,13.08
2022-09-18T06:27:35.367Z,13.03
2022-09-18T06:28:35.363Z,12.93
2022-09-18T06:29:35.335Z,12.85
2022-09-18T06:30:35.326Z,12.92
2022-09-18T06:31:35.372Z,12.83
2022-09-18T06:32:35.302Z,12.78
2022-09-18T06:33:35.307Z,12.79
2022-09-18T06:34:40.339Z,12.87
2022-09-18T06:35:35.266Z,12.83
2022-09-18T06:36:35.256Z,12.85
2022-09-18T06:37:35.255Z,12.87
2022-09-18T06:38:35.246Z,12.74
2022-09-18T06:39:35.342Z,12.79
2022-09-18T06:40:35.293Z,12.68
2022-09-18T06:41:35.197Z,12.70
2022-09-18T06:42:35.215Z,12.72
2022-09-18T06:43:35.186Z,12.77
2022-09-18T06:44:35.235Z,12.83
2022-09-18T06:45:40.176Z,12.87
2022-09-18T06:46:35.190Z,12.89
2022-09-18T06:47:35.130Z,12.92
2022-09-18T06:48:35.138Z,12.87
2022-09-18T06:49:35.111Z,12.86
2022-09-18T06:50:35.097Z,12.90
2022-09-18T06:51:35.103Z,12.95
2022-09-18T06:52:35.078Z,13.00
2022-09-18T06:53:35.066Z,13.01
2022-09-18T06:54:35.072Z,13.03
2022-09-18T06:55:35.157Z,13.03
2022-09-18T06:56:40.051Z,13.00
2022-09-18T06:57:35.020Z,12.92
2022-09-18T06:58:35.016Z,12.90
2022-09-18T06:59:35.007Z,12.96
2022-09-18T07:00:35.095Z,13.03
2022-09-18T07:01:35.153Z,13.10
2022-09-18T07:02:35.024Z,13.08
2022-09-18T07:03:34.965Z,13.04
2022-09-18T07:04:34.948Z,13.10
2022-09-18T07:05:34.925Z,13.10
2022-09-18T07:06:34.931Z,13.11
2022-09-18T07:07:39.924Z,13.11
2022-09-18T07:08:34.891Z,13.12
2022-09-18T07:09:34.891Z,13.04
2022-09-18T07:10:34.879Z,13.11
2022-09-18T07:11:34.982Z,13.10
2022-09-18T07:12:34.861Z,13.12
2022-09-18T07:13:34.837Z,13.14
2022-09-18T07:14:34.846Z,13.08
2022-09-18T07:15:34.820Z,13.17
2022-09-18T07:16:34.878Z,13.19
2022-09-18T07:17:34.792Z,13.19
2022-09-18T07:18:39.803Z,13.28
2022-09-18T07:19:34.777Z,13.17
2022-09-18T07:20:34.756Z,13.19
2022-09-18T07:21:34.758Z,13.26
2022-09-18T07:22:34.737Z,13.30
2022-09-18T07:23:34.731Z,13.15
2022-09-18T07:24:34.729Z,13.29
2022-09-18T07:25:34.709Z,13.29
2022-09-18T07:26:34.694Z,13.36
2022-09-18T07:27:34.803Z,13.39
2022-09-18T07:28:34.667Z,13.33
2022-09-18T07:29:39.695Z,13.33
2022-09-18T07:30:34.676Z,13.36
2022-09-18T07:31:34.709Z,13.26
2022-09-18T07:32:34.639Z,13.28
2022-09-18T07:33:34.614Z,13.28
2022-09-18T07:34:34.644Z,13.26
2022-09-18T07:35:34.626Z,13.39
2022-09-18T07:36:34.581Z,13.30
2022-09-18T07:37:34.599Z,13.41
2022-09-18T07:38:34.557Z,13.28
2022-09-18T07:39:34.824Z,13.38
2022-09-18T07:40:39.622Z,13.38
2022-09-18T07:41:34.518Z,13.30
2022-09-18T07:42:34.523Z,13.45
2022-09-18T07:43:34.629Z,13.39
2022-09-18T07:44:34.498Z,13.36
2022-09-18T07:45:34.476Z,13.38
2022-09-18T07:46:34.548Z,13.36
2022-09-18T07:47:34.456Z,13.38
2022-09-18T07:48:34.438Z,13.44
2022-09-18T07:49:34.446Z,13.28
2022-09-18T07:50:34.430Z,13.33
2022-09-18T07:51:39.428Z,13.33
2022-09-18T07:52:34.427Z,13.39
2022-09-18T07:53:34.386Z,13.45
2022-09-18T07:54:34.392Z,13.49
2022-09-18T07:55:34.359Z,13.57
2022-09-18T07:56:34.347Z,13.64
2022-09-18T07:57:34.359Z,13.71
2022-09-18T07:58:34.324Z,13.73
2022-09-18T07:59:34.436Z,13.69
2022-09-18T08:00:34.316Z,13.71
2022-09-18T08:01:34.373Z,13.67
2022-09-18T08:02:39.436Z,13.66
2022-09-18T08:03:36.876Z,13.63
2022-09-18T08:04:35.274Z,13.66
2022-09-18T08:05:34.260Z,13.69
2022-09-18T08:06:34.236Z,13.63
2022-09-18T08:07:34.223Z,13.69
2022-09-18T08:08:34.243Z,13.66
2022-09-18T08:09:34.233Z,13.82
2022-09-18T08:10:34.191Z,13.78
2022-09-18T08:11:34.178Z,13.79
2022-09-18T08:12:34.168Z,13.77
2022-09-18T08:13:39.177Z,13.81
2022-09-18T08:14:34.161Z,13.85
2022-09-18T08:15:34.274Z,13.89
2022-09-18T08:16:34.182Z,13.92
2022-09-18T08:17:34.106Z,13.92
2022-09-18T08:18:34.149Z,13.79
2022-09-18T08:19:34.104Z,13.87
2022-09-18T08:20:34.088Z,13.95
2022-09-18T08:21:34.062Z,13.88
2022-09-18T08:22:34.056Z,14.00
2022-09-18T08:23:34.062Z,14.00
2022-09-18T08:24:39.078Z,13.96
2022-09-18T08:25:34.027Z,13.99
2022-09-18T08:26:34.012Z,14.03
2022-09-18T08:27:33.995Z,13.97
2022-09-18T08:28:33.991Z,14.02
2022-09-18T08:29:33.984Z,14.06
2022-09-18T08:30:34.044Z,13.95
2022-09-18T08:31:34.122Z,14.00
2022-09-18T08:32:33.941Z,13.97
2022-09-18T08:33:33.928Z,13.99
2022-09-18T08:34:33.943Z,14.02
2022-09-18T08:35:38.941Z,13.99
2022-09-18T08:36:33.894Z,14.12
2022-09-18T08:37:33.886Z,14.12
2022-09-18T08:38:33.879Z,14.15
2022-09-18T08:39:33.874Z,14.21
2022-09-18T08:40:33.923Z,14.17
2022-09-18T08:41:33.835Z,14.18
2022-09-18T08:42:33.850Z,14.18
2022-09-18T08:43:33.868Z,14.18
2022-09-18T08:44:33.816Z,14.17
2022-09-18T08:45:33.791Z,14.15
2022-09-18T08:46:39.033Z,14.21
2022-09-18T08:47:33.768Z,14.18
2022-09-18T08:48:33.772Z,14.21
2022-09-18T08:49:33.763Z,14.32
2022-09-18T08:50:38.203Z,14.29
2022-09-18T08:51:33.724Z,14.29
2022-09-18T08:52:33.718Z,14.22
2022-09-18T08:53:33.723Z,14.32
2022-09-18T08:54:33.692Z,14.25
2022-09-18T08:55:33.703Z,14.36
2022-09-18T08:56:33.666Z,14.36
2022-09-18T08:57:38.677Z,14.32
2022-09-18T08:58:33.667Z,14.29
2022-09-18T08:59:33.675Z,14.25
2022-09-18T09:00:33.726Z,14.33
2022-09-18T09:01:33.614Z,14.32
2022-09-18T09:02:33.767Z,14.27
2022-09-18T09:03:33.594Z,14.21
2022-09-18T09:04:33.581Z,14.15
2022-09-18T09:05:33.580Z,14.17
2022-09-18T09:06:33.563Z,14.18
2022-09-18T09:07:33.572Z,14.18
2022-09-18T09:08:38.560Z,14.21
2022-09-18T09:09:33.521Z,14.14
2022-09-18T09:10:33.521Z,14.17
2022-09-18T09:11:33.499Z,14.14
2022-09-18T09:12:33.492Z,14.21
2022-09-18T09:13:33.515Z,14.25
2022-09-18T09:14:55.423Z,14.33
2022-09-18T09:15:34.464Z,14.33
2022-09-18T09:16:33.553Z,14.40
2022-09-18T09:17:33.443Z,14.50
2022-09-18T09:18:33.571Z,14.55
2022-09-18T09:19:38.427Z,14.57
2022-09-18T09:20:33.411Z,14.54
2022-09-18T09:21:33.458Z,14.61
2022-09-18T09:22:33.371Z,14.69
2022-09-18T09:23:33.364Z,14.62
2022-09-18T09:24:33.351Z,14.72
2022-09-18T09:25:33.387Z,14.70
2022-09-18T09:26:33.330Z,14.73
2022-09-18T09:27:33.357Z,14.75
2022-09-18T09:28:33.302Z,14.88
2022-09-18T09:29:33.296Z,14.88
2022-09-18T09:30:38.311Z,14.84
2022-09-18T09:31:33.785Z,14.92
2022-09-18T09:32:33.258Z,15.03
2022-09-18T09:33:33.406Z,15.03
2022-09-18T09:34:33.346Z,14.98
2022-09-18T09:35:33.238Z,15.02
2022-09-18T09:36:33.217Z,15.02
2022-09-18T09:37:33.974Z,15.10
2022-09-18T09:38:33.194Z,15.10
2022-09-18T09:39:33.370Z,15.16
2022-09-18T09:40:33.256Z,15.14
2022-09-18T09:41:38.195Z,15.19
2022-09-18T09:42:33.142Z,15.11
2022-09-18T09:43:33.127Z,15.02
2022-09-18T09:44:33.121Z,15.09
2022-09-18T09:45:33.106Z,15.10
2022-09-18T09:46:33.150Z,15.20
2022-09-18T09:47:33.081Z,15.10
2022-09-18T09:48:33.070Z,15.13
2022-09-18T09:49:33.067Z,15.11
2022-09-18T09:50:33.166Z,15.20
2022-09-18T09:51:33.044Z,15.10
2022-09-18T09:52:38.044Z,15.09
2022-09-18T09:53:33.017Z,15.09
2022-09-18T09:54:33.022Z,15.16
2022-09-18T09:55:33.006Z,15.14
2022-09-18T09:56:33.002Z,15.28
2022-09-18T09:57:32.966Z,15.21
2022-09-18T09:58:32.990Z,15.25
2022-09-18T09:59:32.943Z,15.25
2022-09-18T10:00:32.977Z,15.38
2022-09-18T10:01:33.004Z,15.38
2022-09-18T10:02:32.909Z,15.35
2022-09-18T10:03:37.924Z,15.36
2022-09-18T10:04:32.891Z,15.34
2022-09-18T10:05:32.874Z,15.39
2022-09-18T10:06:32.996Z,15.34
2022-09-18T10:07:32.873Z,15.35
2022-09-18T10:08:32.884Z,15.39
2022-09-18T10:09:32.833Z,15.35
2022-09-18T10:10:32.815Z,15.36
2022-09-18T10:11:32.824Z,15.39
2022-09-18T10:12:32.795Z,15.41
2022-09-18T10:13:32.783Z,15.32
2022-09-18T10:14:37.794Z,15.49
2022-09-18T10:15:32.766Z,15.39
2022-09-18T10:16:32.842Z,15.51
2022-09-18T10:17:32.806Z,15.50
2022-09-18T10:18:32.727Z,15.53
2022-09-18T10:19:32.746Z,15.50
2022-09-18T10:20:32.707Z,15.53
2022-09-18T10:21:32.704Z,15.51
2022-09-18T10:22:32.808Z,15.59
2022-09-18T10:23:34.024Z,15.53
2022-09-18T10:24:32.656Z,15.47
2022-09-18T10:25:37.669Z,15.43
2022-09-18T10:26:32.643Z,15.53
2022-09-18T10:27:32.631Z,15.54
2022-09-18T10:28:32.621Z,15.64
2022-09-18T10:29:35.741Z,15.62
2022-09-18T10:30:32.588Z,15.59
2022-09-18T10:31:32.675Z,15.54
2022-09-18T10:32:32.590Z,15.50
2022-09-18T10:33:32.563Z,15.68
2022-09-18T10:34:32.544Z,15.59
2022-09-18T10:35:32.532Z,15.65
2022-09-18T10:36:37.550Z,15.59
2022-09-18T10:37:32.511Z,15.65
2022-09-18T10:38:32.624Z,15.56
2022-09-18T10:39:32.493Z,15.56
2022-09-18T10:40:32.574Z,15.53
2022-09-18T10:41:32.478Z,15.50
2022-09-18T10:42:32.457Z,15.50
2022-09-18T10:43:32.442Z,15.38
2022-09-18T10:44:32.500Z,15.47
2022-09-18T10:45:32.434Z,15.46
2022-09-18T10:46:32.429Z,15.53
2022-09-18T10:47:37.428Z,15.60
2022-09-18T10:48:32.385Z,15.53
2022-09-18T10:49:32.379Z,15.53
2022-09-18T10:50:34.421Z,15.53
2022-09-18T10:51:32.352Z,15.53
2022-09-18T10:52:32.353Z,15.56
2022-09-18T10:53:32.352Z,15.68
2022-09-18T10:54:32.434Z,15.72
2022-09-18T10:55:32.310Z,15.67
2022-09-18T10:56:32.294Z,15.78
2022-09-18T10:57:32.294Z,15.86
2022-09-18T10:58:37.294Z,15.89
2022-09-18T10:59:32.275Z,15.89
2022-09-18T11:00:32.298Z,16.04
2022-09-18T11:01:32.373Z,16.05
2022-09-18T11:02:32.305Z,16.02
2022-09-18T11:03:32.221Z,16.05
2022-09-18T11:04:32.206Z,16.14
2022-09-18T11:05:32.194Z,16.15
2022-09-18T11:06:32.201Z,16.21
2022-09-18T11:07:32.171Z,16.15
2022-09-18T11:08:32.157Z,16.17
2022-09-18T11:09:37.291Z,16.11
2022-09-18T11:10:32.139Z,16.08
2022-09-18T11:11:32.136Z,16.05
2022-09-18T11:12:32.126Z,16.02
2022-09-18T11:13:32.101Z,16.14
2022-09-18T11:14:32.090Z,16.11
2022-09-18T11:15:32.081Z,16.11
2022-09-18T11:16:32.159Z,16.24
2022-09-18T11:17:32.076Z,16.24
2022-09-18T11:18:32.074Z,16.20
2022-09-18T11:19:32.033Z,16.31
2022-09-18T11:20:37.051Z,16.17
2022-09-18T11:21:32.032Z,16.14
2022-09-18T11:22:32.020Z,16.17
2022-09-18T11:23:31.994Z,16.05
2022-09-18T11:24:31.975Z,16.12
2022-09-18T11:25:32.082Z,16.07
2022-09-18T11:26:31.973Z,16.09
2022-09-18T11:27:31.945Z,16.08
2022-09-18T11:28:31.933Z,16.05
2022-09-18T11:29:31.921Z,16.01
2022-09-18T11:30:31.907Z,16.00
2022-09-18T11:31:37.009Z,16.01
2022-09-18T11:32:31.890Z,15.97
2022-09-18T11:33:31.880Z,15.90
2022-09-18T11:34:31.870Z,15.93
2022-09-18T11:35:31.857Z,15.84
2022-09-18T11:36:31.849Z,15.92
2022-09-18T11:37:31.832Z,15.82
2022-09-18T11:38:31.820Z,15.84
2022-09-18T11:39:31.810Z,15.87
2022-09-18T11:40:31.870Z,15.83
2022-09-18T11:41:31.922Z,15.83
2022-09-18T11:42:36.793Z,15.89
2022-09-18T11:43:31.762Z,15.80
2022-09-18T11:44:31.785Z,15.75
2022-09-18T11:45:31.738Z,15.74
2022-09-18T11:46:31.769Z,15.68
2022-09-18T11:47:31.746Z,15.67
2022-09-18T11:48:31.705Z,15.68
2022-09-18T11:49:31.697Z,15.67
2022-09-18T11:50:31.681Z,15.60
2022-09-18T11:51:31.673Z,15.62
2022-09-18T11:52:31.671Z,15.54
2022-09-18T11:53:36.671Z,15.53
2022-09-18T11:54:31.634Z,15.54
2022-09-18T11:55:31.630Z,15.53
2022-09-18T11:56:31.614Z,15.50
2022-09-18T11:57:31.726Z,15.39
2022-09-18T11:58:31.598Z,15.47
2022-09-18T11:59:31.588Z,15.50
2022-09-18T12:00:31.575Z,15.46
2022-09-18T12:01:31.573Z,15.47
2022-09-18T12:02:31.791Z,15.38
2022-09-18T12:03:31.666Z,15.38
2022-09-18T12:04:36.553Z,15.36
2022-09-18T12:05:31.516Z,15.38
2022-09-18T12:06:31.499Z,15.34
2022-09-18T12:07:36.996Z,15.36
2022-09-18T12:08:30.121Z,15.31
2022-09-18T12:09:30.118Z,15.32
2022-09-18T12:10:30.119Z,15.27
2022-09-18T12:11:30.083Z,15.31
2022-09-18T12:12:30.091Z,15.34
2022-09-18T12:13:30.183Z,15.36
2022-09-18T12:14:30.048Z,15.31
2022-09-18T12:15:35.063Z,15.46
2022-09-18T12:16:30.056Z,15.47
2022-09-18T12:17:30.025Z,15.47
2022-09-18T12:18:29.999Z,15.54
2022-09-18T12:19:29.987Z,15.51
2022-09-18T12:20:29.978Z,15.62
2022-09-18T12:21:29.969Z,15.49
2022-09-18T12:22:29.961Z,15.51
2022-09-18T12:23:29.951Z,15.56
2022-09-18T12:24:29.924Z,15.54
2022-09-18T12:25:29.914Z,15.53
2022-09-18T12:26:34.922Z,15.54
2022-09-18T12:27:29.913Z,15.68
2022-09-18T12:28:29.879Z,15.64
2022-09-18T12:29:29.991Z,15.64
2022-09-18T12:30:29.864Z,15.57
2022-09-18T12:31:29.903Z,15.62
2022-09-18T12:32:29.843Z,15.53
2022-09-18T12:33:33.948Z,15.68
2022-09-18T12:34:29.803Z,15.59
2022-09-18T12:35:29.792Z,15.60
2022-09-18T12:36:29.778Z,15.68
2022-09-18T12:37:34.803Z,15.59
2022-09-18T12:38:29.756Z,15.62
2022-09-18T12:39:30.416Z,15.68
2022-09-18T12:40:30.448Z,15.67
2022-09-18T12:41:30.393Z,15.71
2022-09-18T12:42:30.388Z,15.67
2022-09-18T12:43:30.368Z,15.65
2022-09-18T12:44:30.360Z,15.68
2022-09-18T12:45:30.573Z,15.71
2022-09-18T12:46:30.360Z,15.74
2022-09-18T12:47:30.375Z,15.74
2022-09-18T12:48:35.329Z,15.75
2022-09-18T12:49:30.307Z,15.69
2022-09-18T12:50:30.282Z,15.69
2022-09-18T12:51:30.272Z,15.68
2022-09-18T12:52:30.271Z,15.78
2022-09-18T12:53:30.248Z,15.68
2022-09-18T12:54:30.236Z,15.71
2022-09-18T12:55:30.251Z,15.71
2022-09-18T12:56:30.214Z,15.69
2022-09-18T12:57:30.210Z,15.65
2022-09-18T12:58:30.185Z,15.69
2022-09-18T12:59:35.195Z,15.67
2022-09-18T13:00:30.225Z,15.68
2022-09-18T13:01:30.268Z,15.67
2022-09-18T13:02:30.216Z,15.62
2022-09-18T13:03:30.219Z,15.65
2022-09-18T13:04:30.113Z,15.67
2022-09-18T13:05:30.100Z,15.60
2022-09-18T13:06:30.090Z,15.68
2022-09-18T13:07:30.167Z,15.69
2022-09-18T13:08:30.079Z,15.65
2022-09-18T13:09:30.053Z,15.64
2022-09-18T13:10:35.067Z,15.54
2022-09-18T13:11:30.038Z,15.62
2022-09-18T13:12:30.029Z,15.54
2022-09-18T13:13:30.021Z,15.56
2022-09-18T13:14:30.004Z,15.60
2022-09-18T13:15:29.982Z,15.64
2022-09-18T13:16:30.794Z,15.57
2022-09-18T13:17:30.803Z,15.56
2022-09-18T13:18:30.690Z,15.62
2022-09-18T13:19:30.663Z,15.60
2022-09-18T13:20:30.655Z,15.62
2022-09-18T13:21:35.662Z,15.62
2022-09-18T13:22:30.642Z,15.50
2022-09-18T13:23:30.647Z,15.65
2022-09-18T13:24:30.602Z,15.62
2022-09-18T13:25:30.606Z,15.50
2022-09-18T13:26:30.612Z,15.50
2022-09-18T13:27:30.577Z,15.54
2022-09-18T13:28:30.581Z,15.53
2022-09-18T13:29:30.585Z,15.51
2022-09-18T13:30:30.546Z,15.47
2022-09-18T13:31:30.605Z,15.51
2022-09-18T13:32:37.807Z,15.54
2022-09-18T13:33:30.502Z,15.50
2022-09-18T13:34:30.480Z,15.53
2022-09-18T13:35:30.498Z,15.56
2022-09-18T13:36:30.458Z,15.50
2022-09-18T13:37:30.447Z,15.51
2022-09-18T13:38:30.541Z,15.53
2022-09-18T13:39:40.917Z,15.54
2022-09-18T13:40:31.460Z,15.59
2022-09-18T13:41:30.399Z,15.51
2022-09-18T13:42:30.401Z,15.50
2022-09-18T13:43:35.409Z,15.50
2022-09-18T13:44:30.377Z,15.51
2022-09-18T13:45:30.355Z,15.47
2022-09-18T13:46:30.399Z,15.46
2022-09-18T13:47:30.328Z,15.53
2022-09-18T13:48:30.435Z,15.54
2022-09-18T13:49:30.302Z,15.49
2022-09-18T13:50:30.291Z,15.53
2022-09-18T13:51:31.543Z,15.53
2022-09-18T13:52:30.264Z,15.53
2022-09-18T13:53:30.269Z,15.50
2022-09-18T13:54:35.263Z,15.49
2022-09-18T13:55:30.231Z,15.60
2022-09-18T13:56:30.243Z,15.50
2022-09-18T13:57:30.227Z,15.51
2022-09-18T13:58:30.204Z,15.53
2022-09-18T13:59:30.183Z,15.51
2022-09-18T14:00:30.219Z,15.53
2022-09-18T14:01:30.216Z,15.62
2022-09-18T14:02:30.149Z,15.53
2022-09-18T14:03:30.159Z,15.53
2022-09-18T14:04:30.251Z,15.53
2022-09-18T14:05:35.187Z,15.56
2022-09-18T14:06:30.103Z,15.54
2022-09-18T14:07:30.089Z,15.57
2022-09-18T14:08:30.092Z,15.59
2022-09-18T14:09:30.078Z,15.60
2022-09-18T14:10:30.056Z,15.53
2022-09-18T14:11:30.057Z,15.65
2022-09-18T14:12:30.064Z,15.69
2022-09-18T14:13:30.028Z,15.53
2022-09-18T14:14:30.047Z,15.65
2022-09-18T14:15:29.999Z,15.47
2022-09-18T14:16:35.035Z,15.56
2022-09-18T14:17:29.979Z,15.57
2022-09-18T14:18:30.043Z,15.59
2022-09-18T14:19:29.960Z,15.51
2022-09-18T14:20:30.080Z,15.53
2022-09-18T14:21:29.931Z,15.57
2022-09-18T14:22:29.923Z,15.49
2022-09-18T14:23:29.911Z,15.50
2022-09-18T14:24:29.902Z,15.50
2022-09-18T14:25:32.816Z,15.49
2022-09-18T14:26:29.869Z,15.47
2022-09-18T14:27:34.882Z,15.51
2022-09-18T14:28:29.854Z,15.56
2022-09-18T14:29:29.855Z,15.50
2022-09-18T14:30:29.821Z,15.47
2022-09-18T14:31:29.958Z,15.51
2022-09-18T14:32:29.799Z,15.51
2022-09-18T14:33:29.850Z,15.53
2022-09-18T14:34:29.805Z,15.51
2022-09-18T14:35:29.791Z,15.54
2022-09-18T14:36:29.867Z,15.53
2022-09-18T14:37:29.749Z,15.46
2022-09-18T14:38:34.755Z,15.51
2022-09-18T14:39:29.733Z,15.53
2022-09-18T14:40:29.733Z,15.51
2022-09-18T14:41:29.698Z,15.51
2022-09-18T14:42:32.611Z,15.51
2022-09-18T14:43:29.676Z,15.50
2022-09-18T14:44:29.766Z,15.49
2022-09-18T14:45:29.765Z,15.54
2022-09-18T14:46:29.722Z,15.57
2022-09-18T14:47:29.631Z,15.54
2022-09-18T14:48:29.631Z,15.44
2022-09-18T14:49:34.653Z,15.54
2022-09-18T14:50:29.600Z,15.47
2022-09-18T14:51:29.587Z,15.53
2022-09-18T14:52:29.698Z,15.62
2022-09-18T14:53:29.567Z,15.51
2022-09-18T14:54:29.568Z,15.51
2022-09-18T14:55:29.590Z,15.56
2022-09-18T14:56:29.533Z,15.50
2022-09-18T14:57:29.519Z,15.46
2022-09-18T14:58:29.508Z,15.50
2022-09-18T14:59:29.526Z,15.50
2022-09-18T15:00:34.609Z,15.60
2022-09-18T15:01:29.490Z,15.50
2022-09-18T15:02:29.462Z,15.56
2022-09-18T15:03:29.450Z,15.53
2022-09-18T15:04:29.468Z,15.49
2022-09-18T15:05:29.444Z,15.53
2022-09-18T15:06:29.418Z,15.54
2022-09-18T15:07:29.413Z,15.50
2022-09-18T15:08:29.517Z,15.53
2022-09-18T15:09:29.388Z,15.51
2022-09-18T15:10:29.391Z,15.53
2022-09-18T15:11:47.028Z,15.51
2022-09-18T15:12:30.352Z,15.51
2022-09-18T15:13:29.344Z,15.54
2022-09-18T15:14:29.331Z,15.56
2022-09-18T15:15:29.329Z,15.54
2022-09-18T15:16:29.478Z,15.53
2022-09-18T15:17:29.296Z,15.51
2022-09-18T15:18:29.286Z,15.49
2022-09-18T15:19:29.277Z,15.49
2022-09-18T15:20:29.303Z,15.51
2022-09-18T15:21:33.046Z,15.51
2022-09-18T15:22:34.272Z,15.49
2022-09-18T15:23:29.235Z,15.54
2022-09-18T15:24:29.344Z,15.50
2022-09-18T15:25:29.231Z,15.50
2022-09-18T15:26:29.210Z,15.50
2022-09-18T15:27:29.194Z,15.50
2022-09-18T15:28:29.182Z,15.53
2022-09-18T15:29:29.168Z,15.53
2022-09-18T15:30:29.172Z,15.54
2022-09-18T15:31:29.207Z,15.50
2022-09-18T15:32:29.141Z,15.51
2022-09-18T15:33:34.161Z,15.50
2022-09-18T15:34:29.122Z,15.56
2022-09-18T15:35:29.134Z,15.50
2022-09-18T15:36:29.101Z,15.50
2022-09-18T15:37:29.112Z,15.53
2022-09-18T15:38:29.082Z,15.50
2022-09-18T15:39:29.080Z,15.49
2022-09-18T15:40:29.254Z,15.60
2022-09-18T15:41:29.047Z,15.51
2022-09-18T15:42:29.033Z,15.51
2022-09-18T15:43:29.039Z,15.54
2022-09-18T15:44:34.032Z,15.54
2022-09-18T15:45:29.063Z,15.50
2022-09-18T15:46:29.029Z,15.54
2022-09-18T15:47:28.975Z,15.49
2022-09-18T15:48:33.216Z,15.50
2022-09-18T15:49:28.967Z,15.57
2022-09-18T15:50:28.952Z,15.54
2022-09-18T15:51:28.945Z,15.46
2022-09-18T15:52:28.920Z,15.51
2022-09-18T15:53:28.912Z,15.49
2022-09-18T15:54:28.901Z,15.49
2022-09-18T15:55:34.039Z,15.54
2022-09-18T15:56:28.883Z,15.50
2022-09-18T15:57:28.915Z,15.53
2022-09-18T15:58:28.905Z,15.53
2022-09-18T15:59:28.838Z,15.56
2022-09-18T16:00:28.827Z,15.56
2022-09-18T16:01:28.825Z,15.54
2022-09-18T16:02:28.832Z,15.57
2022-09-18T16:03:28.790Z,15.54
2022-09-18T16:04:28.783Z,15.65
2022-09-18T16:05:28.773Z,15.57
2022-09-18T16:06:33.844Z,15.53
2022-09-18T16:07:28.746Z,15.53
2022-09-18T16:08:28.737Z,15.57
2022-09-18T16:09:32.908Z,15.53
2022-09-18T16:10:28.710Z,15.51
2022-09-18T16:11:28.827Z,15.54
2022-09-18T16:12:28.691Z,15.47
2022-09-18T16:13:28.675Z,15.51
2022-09-18T16:14:28.674Z,15.50
2022-09-18T16:15:28.656Z,15.57
2022-09-18T16:16:28.699Z,15.49
2022-09-18T16:17:36.614Z,15.51
2022-09-18T16:18:28.631Z,15.53
2022-09-18T16:19:28.604Z,15.50
2022-09-18T16:20:28.597Z,15.49
2022-09-18T16:21:28.599Z,15.50
2022-09-18T16:22:28.580Z,15.43
2022-09-18T16:23:28.563Z,15.44
2022-09-18T16:24:28.579Z,15.41
2022-09-18T16:25:28.548Z,15.38
2022-09-18T16:26:28.541Z,15.38
2022-09-18T16:27:28.636Z,15.38
2022-09-18T16:28:33.528Z,15.35
2022-09-18T16:29:28.497Z,15.34
2022-09-18T16:30:28.488Z,15.29
2022-09-18T16:31:28.550Z,15.39
2022-09-18T16:32:28.459Z,15.38
2022-09-18T16:33:28.462Z,15.34
2022-09-18T16:34:28.443Z,15.29
2022-09-18T16:35:28.440Z,15.25
2022-09-18T16:36:28.434Z,15.31
2022-09-18T16:37:28.415Z,15.23
2022-09-18T16:38:28.394Z,15.16
2022-09-18T16:39:33.402Z,15.25
2022-09-18T16:40:28.432Z,15.20
2022-09-18T16:41:28.400Z,15.13
2022-09-18T16:42:28.344Z,15.19
2022-09-18T16:43:28.447Z,15.19
2022-09-18T16:44:28.321Z,15.19
2022-09-18T16:45:28.315Z,15.14
2022-09-18T16:46:28.332Z,15.14
2022-09-18T16:47:28.290Z,15.13
2022-09-18T16:48:28.275Z,15.07
2022-09-18T16:49:28.263Z,15.13
2022-09-18T16:50:33.275Z,15.01
2022-09-18T16:51:28.253Z,15.07
2022-09-18T16:52:28.231Z,15.02